createdAt,value
2022-08-01T00:00:40.650Z,101631.97
2022-08-01T00:03:09.735Z,101634.72
2022-08-01T00:05:36.285Z,101646.88
2022-08-01T00:08:02.843Z,101640.41
2022-08-01T00:10:32.444Z,101654.16
2022-08-01T00:13:02.846Z,101659.03
2022-08-01T00:15:29.410Z,101651.91
2022-08-01T00:17:55.970Z,101656.00
2022-08-01T00:20:22.830Z,101658.97
2022-08-01T00:22:51.710Z,101663.84
2022-08-01T00:25:18.230Z,101659.56
2022-08-01T00:27:44.791Z,101658.03
2022-08-01T00:30:14.603Z,101651.84
2022-08-01T00:32:43.042Z,101661.00
2022-08-01T00:35:10.058Z,101660.38
2022-08-01T00:37:41.389Z,101657.78
2022-08-01T00:40:08.685Z,101668.22
2022-08-01T00:42:38.122Z,101673.97
2022-08-01T00:45:08.661Z,101638.16
2022-08-01T00:47:35.224Z,101674.75
2022-08-01T00:50:04.495Z,101663.00
2022-08-01T00:52:34.468Z,101664.25
2022-08-01T00:55:01.447Z,101667.38
2022-08-01T00:58:01.473Z,101677.25
2022-08-01T01:00:16.042Z,101672.72
2022-08-01T01:02:42.735Z,101674.84
2022-08-01T01:05:09.671Z,101664.16
2022-08-01T01:07:50.032Z,101671.41
2022-08-01T01:10:23.909Z,101665.69
2022-08-01T01:13:12.643Z,101662.03
2022-08-01T01:15:50.818Z,101671.22
2022-08-01T01:18:26.542Z,101669.50
2022-08-01T01:21:04.579Z,101667.56
2022-08-01T01:24:05.048Z,101669.69
2022-08-01T01:27:02.452Z,101666.47
2022-08-01T01:30:00.540Z,101662.34
2022-08-01T01:32:39.301Z,101666.00
2022-08-01T01:35:42.781Z,101665.31
2022-08-01T01:38:18.835Z,101661.69
2022-08-01T01:40:49.916Z,101668.47
2022-08-01T01:43:20.354Z,101662.94
2022-08-01T01:45:48.593Z,101661.25
2022-08-01T01:48:20.359Z,101658.66
2022-08-01T01:50:48.756Z,101660.78
2022-08-01T01:53:21.259Z,101658.00
2022-08-01T01:55:53.183Z,101631.78
2022-08-01T01:58:21.434Z,101666.03
2022-08-01T02:00:50.668Z,101613.19
2022-08-01T02:03:19.680Z,101660.59
2022-08-01T02:05:49.465Z,101644.47
2022-08-01T02:08:17.755Z,101662.63
2022-08-01T02:11:06.410Z,101663.41
2022-08-01T02:13:35.088Z,101649.66
2022-08-01T02:16:02.409Z,101658.25
2022-08-01T02:18:31.626Z,101664.63
2022-08-01T02:21:00.090Z,101661.66
2022-08-01T02:23:38.013Z,101658.72
2022-08-01T02:26:11.748Z,101657.22
2022-08-01T02:29:02.590Z,101664.44
2022-08-01T02:31:33.215Z,101661.66
2022-08-01T02:34:12.697Z,101659.78
2022-08-01T02:36:42.615Z,101658.25
2022-08-01T02:39:13.891Z,101665.06
2022-08-01T02:41:48.714Z,101668.19
2022-08-01T02:44:28.042Z,101666.66
2022-08-01T02:47:03.343Z,101669.16
2022-08-01T02:49:34.576Z,101668.00
2022-08-01T02:52:05.244Z,101669.06
2022-08-01T02:54:33.101Z,101669.25
2022-08-01T02:57:02.275Z,101666.69
2022-08-01T02:59:30.782Z,101660.59
2022-08-01T03:01:58.665Z,101671.66
2022-08-01T03:04:28.126Z,101622.16
2022-08-01T03:06:59.418Z,101673.22
2022-08-01T03:09:28.601Z,101659.50
2022-08-01T03:12:00.992Z,101662.81
2022-08-01T03:14:32.648Z,101663.38
2022-08-01T03:17:03.964Z,101657.94
2022-08-01T03:19:34.251Z,101671.59
2022-08-01T03:22:04.547Z,101669.75
2022-08-01T03:24:32.571Z,101642.94
2022-08-01T03:27:00.176Z,101677.97
2022-08-01T03:29:28.638Z,101689.75
2022-08-01T03:31:56.273Z,101685.47
2022-08-01T03:34:22.972Z,101679.94
2022-08-01T03:37:00.697Z,101676.63
2022-08-01T03:39:34.831Z,101685.69
2022-08-01T03:42:09.605Z,101670.13
2022-08-01T03:44:40.053Z,101685.50
2022-08-01T03:47:09.686Z,101687.25
2022-08-01T03:49:42.972Z,101680.34
2022-08-01T03:52:10.548Z,101686.88
2022-08-01T03:54:41.457Z,101689.44
2022-08-01T03:57:34.802Z,101682.00
2022-08-01T04:00:01.256Z,101687.53
2022-08-01T04:02:28.940Z,101686.88
2022-08-01T04:04:56.298Z,101688.75
2022-08-01T04:07:29.138Z,101685.78
2022-08-01T04:09:55.793Z,101685.06
2022-08-01T04:12:22.936Z,101689.03
2022-08-01T04:14:51.878Z,101685.97
2022-08-01T04:17:20.901Z,101690.78
2022-08-01T04:19:47.450Z,101691.63
2022-08-01T04:22:16.541Z,101677.69
2022-08-01T04:24:54.472Z,101688.56
2022-08-01T04:27:51.554Z,101690.75
2022-08-01T04:30:17.905Z,101692.25
2022-08-01T04:32:50.997Z,101690.75
2022-08-01T04:35:23.438Z,101693.16
2022-08-01T04:38:09.551Z,101691.22
2022-08-01T04:40:37.336Z,101701.91
2022-08-01T04:43:04.496Z,101691.03
2022-08-01T04:45:33.246Z,101696.88
2022-08-01T04:48:00.859Z,101681.16
2022-08-01T04:50:28.361Z,101685.63
2022-08-01T04:52:54.916Z,101704.34
2022-08-01T04:55:21.426Z,101700.16
2022-08-01T04:57:49.591Z,101711.59
2022-08-01T05:00:17.612Z,101710.50
2022-08-01T05:02:44.554Z,101711.25
2022-08-01T05:05:11.523Z,101705.72
2022-08-01T05:07:45.764Z,101709.75
2022-08-01T05:10:12.870Z,101709.25
2022-08-01T05:12:42.771Z,101716.59
2022-08-01T05:15:15.179Z,101713.81
2022-08-01T05:17:44.663Z,101719.81
2022-08-01T05:20:12.589Z,101712.25
2022-08-01T05:22:39.429Z,101718.16
2022-08-01T05:25:08.990Z,101712.13
2022-08-01T05:27:40.457Z,101726.47
2022-08-01T05:30:09.142Z,101711.00
2022-08-01T05:32:36.449Z,101723.09
2022-08-01T05:35:03.383Z,101729.72
2022-08-01T05:37:32.162Z,101725.69
2022-08-01T05:39:58.749Z,101727.66
2022-08-01T05:42:27.687Z,101721.22
2022-08-01T05:44:54.348Z,101733.88
2022-08-01T05:47:23.305Z,101730.00
2022-08-01T05:49:49.960Z,101736.28
2022-08-01T05:52:16.583Z,101747.25
2022-08-01T05:54:45.598Z,101741.84
2022-08-01T05:57:12.459Z,101711.06
2022-08-01T05:59:39.199Z,101734.31
2022-08-01T06:02:06.170Z,101743.41
2022-08-01T06:04:32.923Z,101736.47
2022-08-01T06:07:01.964Z,101737.72
2022-08-01T06:09:28.646Z,101735.94
2022-08-01T06:11:57.467Z,101746.44
2022-08-01T06:14:23.997Z,101751.97
2022-08-01T06:16:50.545Z,101746.25
2022-08-01T06:19:21.627Z,101749.88
2022-08-01T06:21:48.202Z,101736.19
2022-08-01T06:24:14.861Z,101748.69
2022-08-01T06:26:43.919Z,101747.66
2022-08-01T06:29:14.125Z,101743.69
2022-08-01T06:31:40.645Z,101729.34
2022-08-01T06:34:07.248Z,101734.03
2022-08-01T06:36:33.793Z,101751.72
2022-08-01T06:39:02.597Z,101748.34
2022-08-01T06:41:31.591Z,101755.56
2022-08-01T06:43:58.268Z,101755.31
2022-08-01T06:46:24.861Z,101748.03
2022-08-01T06:48:57.169Z,101756.53
2022-08-01T06:51:23.863Z,101757.09
2022-08-01T06:53:54.636Z,101759.41
2022-08-01T06:56:21.221Z,101729.03
2022-08-01T06:58:47.980Z,101734.78
2022-08-01T07:01:14.599Z,101767.63
2022-08-01T07:03:53.058Z,101764.66
2022-08-01T07:06:23.391Z,101744.16
2022-08-01T07:11:16.512Z,101764.63
2022-08-01T07:13:45.572Z,101766.66
2022-08-01T07:16:15.995Z,101766.09
2022-08-01T07:18:45.217Z,101777.22
2022-08-01T07:21:37.219Z,101766.03
2022-08-01T07:23:59.147Z,101777.75
2022-08-01T07:26:27.724Z,101771.09
2022-08-01T07:28:54.609Z,101776.00
2022-08-01T07:31:21.230Z,101778.38
2022-08-01T07:33:49.061Z,101768.22
2022-08-01T07:36:17.058Z,101774.44
2022-08-01T07:38:43.841Z,101772.75
2022-08-01T07:41:10.793Z,101787.72
2022-08-01T07:43:39.860Z,101782.34
2022-08-01T07:46:07.438Z,101777.00
2022-08-01T07:48:36.701Z,101787.69
2022-08-01T07:51:05.331Z,101793.63
2022-08-01T07:53:31.930Z,101794.88
2022-08-01T07:55:58.679Z,101795.94
2022-08-01T07:58:25.418Z,101796.56
2022-08-01T08:00:51.954Z,101808.72
2022-08-01T08:03:18.520Z,101800.78
2022-08-01T08:05:51.609Z,101804.19
2022-08-01T08:08:25.798Z,101803.59
2022-08-01T08:10:52.716Z,101780.44
2022-08-01T08:13:21.595Z,101788.09
2022-08-01T08:15:51.130Z,101785.25
2022-08-01T08:18:17.769Z,101786.59
2022-08-01T08:20:44.966Z,101780.56
2022-08-01T08:23:42.842Z,101783.88
2022-08-01T08:26:12.094Z,101794.31
2022-08-01T08:28:40.339Z,101798.50
2022-08-01T08:31:08.043Z,101794.06
2022-08-01T08:33:52.518Z,101795.28
2022-08-01T08:36:19.118Z,101796.78
2022-08-01T08:38:48.656Z,101788.41
2022-08-01T08:41:20.755Z,101785.28
2022-08-01T08:43:48.258Z,101797.50
2022-08-01T08:46:16.016Z,101795.50
2022-08-01T08:48:42.913Z,101804.00
2022-08-01T08:51:14.106Z,101803.59
2022-08-01T08:53:44.787Z,101807.41
2022-08-01T08:56:17.359Z,101808.38
2022-08-01T08:58:45.997Z,101809.75
2022-08-01T09:01:13.630Z,101801.00
2022-08-01T09:03:41.907Z,101810.38
2022-08-01T09:06:08.745Z,101806.31
2022-08-01T09:08:35.911Z,101812.22
2022-08-01T09:11:02.605Z,101806.75
2022-08-01T09:13:29.172Z,101811.34
2022-08-01T09:16:00.469Z,101797.94
2022-08-01T09:18:41.498Z,101812.84
2022-08-01T09:21:25.276Z,101810.94
2022-08-01T09:23:55.163Z,101815.06
2022-08-01T09:26:31.790Z,101798.28
2022-08-01T09:29:00.496Z,101821.88
2022-08-01T09:31:37.854Z,101823.03
2022-08-01T09:34:05.454Z,101837.69
2022-08-01T09:36:45.638Z,101840.31
2022-08-01T09:39:16.173Z,101833.19
2022-08-01T09:41:42.781Z,101836.88
2022-08-01T09:44:09.660Z,101835.34
2022-08-01T09:46:37.423Z,101846.66
2022-08-01T09:49:10.743Z,101844.75
2022-08-01T09:51:59.468Z,101844.78
2022-08-01T09:54:35.033Z,101847.47
2022-08-01T09:57:13.872Z,101852.63
2022-08-01T09:59:58.430Z,101853.13
2022-08-01T10:02:36.430Z,101858.91
2022-08-01T10:05:09.293Z,101854.38
2022-08-01T10:07:58.959Z,101860.78
2022-08-01T10:10:29.198Z,101852.88
2022-08-01T10:13:09.824Z,101861.22
2022-08-01T10:15:37.973Z,101861.44
2022-08-01T10:18:16.078Z,101869.56
2022-08-01T10:20:44.035Z,101872.72
2022-08-01T10:23:11.817Z,101874.84
2022-08-01T10:25:46.889Z,101879.19
2022-08-01T10:28:23.900Z,101887.34
2022-08-01T10:30:52.114Z,101880.91
2022-08-01T10:33:51.822Z,101891.63
2022-08-01T10:36:10.406Z,101878.25
2022-08-01T10:38:37.230Z,101893.25
2022-08-01T10:41:06.240Z,101894.94
2022-08-01T10:43:35.479Z,101896.78
2022-08-01T10:46:04.249Z,101886.44
2022-08-01T10:49:03.280Z,101899.44
2022-08-01T10:51:51.663Z,101904.69
2022-08-01T10:54:16.982Z,101908.28
2022-08-01T10:56:48.737Z,101901.75
2022-08-01T10:59:50.260Z,101903.03
2022-08-01T11:02:11.939Z,101884.41
2022-08-01T11:04:41.605Z,101897.94
2022-08-01T11:07:39.851Z,101899.19
2022-08-01T11:10:20.138Z,101900.50
2022-08-01T11:12:51.046Z,101885.03
2022-08-01T11:15:29.736Z,101897.44
2022-08-01T11:18:00.584Z,101899.88
2022-08-01T11:20:39.555Z,101904.00
2022-08-01T11:23:08.974Z,101908.78
2022-08-01T11:26:03.897Z,101915.69
2022-08-01T11:28:33.848Z,101904.56
2022-08-01T11:31:11.294Z,101909.25
2022-08-01T11:33:47.066Z,101913.53
2022-08-01T11:36:14.508Z,101908.59
2022-08-01T11:39:13.307Z,101899.16
2022-08-01T11:41:42.073Z,101892.28
2022-08-01T11:44:28.185Z,101899.34
2022-08-01T11:47:09.146Z,101898.25
2022-08-01T11:49:55.971Z,101891.75
2022-08-01T11:52:31.437Z,101901.44
2022-08-01T11:55:10.234Z,101901.25
2022-08-01T11:57:41.252Z,101898.19
2022-08-01T12:00:15.388Z,101908.56
2022-08-01T12:02:45.381Z,101910.47
2022-08-01T12:05:15.405Z,101896.44
2022-08-01T12:07:44.164Z,101914.06
2022-08-01T12:10:16.551Z,101910.38
2022-08-01T12:12:45.067Z,101902.94
2022-08-01T12:15:15.435Z,101895.22
2022-08-01T12:17:57.516Z,101899.56
2022-08-01T12:20:35.263Z,101912.19
2022-08-01T12:23:09.336Z,101902.84
2022-08-01T12:25:36.859Z,101911.28
2022-08-01T12:28:06.105Z,101914.88
2022-08-01T12:30:37.145Z,101916.63
2022-08-01T12:33:05.928Z,101908.28
2022-08-01T12:35:33.294Z,101913.22
2022-08-01T12:38:04.603Z,101921.63
2022-08-01T12:40:33.730Z,101920.34
2022-08-01T12:43:05.222Z,101917.50
2022-08-01T12:45:35.240Z,101916.94
2022-08-01T12:48:02.431Z,101914.56
2022-08-01T12:50:33.005Z,101914.81
2022-08-01T12:53:00.769Z,101915.56
2022-08-01T12:55:33.666Z,101917.13
2022-08-01T12:58:16.026Z,101912.63
2022-08-01T13:00:46.412Z,101908.69
2022-08-01T13:03:18.065Z,101912.34
2022-08-01T13:05:51.535Z,101905.66
2022-08-01T13:08:24.469Z,101891.28
2022-08-01T13:11:00.606Z,101889.81
2022-08-01T13:13:39.733Z,101901.19
2022-08-01T13:16:12.142Z,101899.94
2022-08-01T13:18:41.579Z,101901.88
2022-08-01T13:21:11.518Z,101895.00
2022-08-01T13:24:01.747Z,101896.09
2022-08-01T13:26:44.077Z,101895.00
2022-08-01T13:29:12.919Z,101892.22
2022-08-01T13:31:40.555Z,101878.72
2022-08-01T13:34:07.794Z,101894.38
2022-08-01T13:36:35.416Z,101892.06
2022-08-01T13:39:21.119Z,101896.56
2022-08-01T13:41:47.899Z,101890.13
2022-08-01T13:44:15.629Z,101892.09
2022-08-01T13:46:49.491Z,101896.97
2022-08-01T13:49:18.976Z,101891.09
2022-08-01T13:51:51.008Z,101888.88
2022-08-01T13:54:17.966Z,101891.41
2022-08-01T13:56:44.532Z,101893.13
2022-08-01T13:59:11.204Z,101887.31
2022-08-01T14:01:40.136Z,101875.72
2022-08-01T14:04:06.787Z,101882.31
2022-08-01T14:06:33.565Z,101872.78
2022-08-01T14:09:01.342Z,101882.44
2022-08-01T14:11:30.666Z,101867.59
2022-08-01T14:14:04.574Z,101876.28
2022-08-01T14:16:31.436Z,101872.00
2022-08-01T14:19:00.155Z,101875.50
2022-08-01T14:21:29.206Z,101881.19
2022-08-01T14:23:55.718Z,101866.38
2022-08-01T14:26:22.402Z,101875.50
2022-08-01T14:28:49.027Z,101879.41
2022-08-01T14:31:18.656Z,101873.38
2022-08-01T14:33:45.182Z,101867.56
2022-08-01T14:36:30.362Z,101869.72
2022-08-01T14:39:00.427Z,101880.31
2022-08-01T14:41:27.492Z,101877.56
2022-08-01T14:43:54.575Z,101871.38
2022-08-01T14:46:21.136Z,101867.56
2022-08-01T14:48:50.266Z,101864.75
2022-08-01T14:51:16.873Z,101842.44
2022-08-01T14:53:47.011Z,101875.94
2022-08-01T14:56:18.357Z,101872.31
2022-08-01T14:58:45.111Z,101872.94
2022-08-01T15:01:11.954Z,101863.88
2022-08-01T15:03:38.717Z,101873.53
2022-08-01T15:06:07.726Z,101861.75
2022-08-01T15:08:34.339Z,101869.72
2022-08-01T15:11:03.451Z,101853.84
2022-08-01T15:13:30.111Z,101854.44
2022-08-01T15:16:00.089Z,101862.59
2022-08-01T15:18:29.478Z,101866.50
2022-08-01T15:20:59.594Z,101859.84
2022-08-01T15:23:28.721Z,101866.72
2022-08-01T15:25:57.815Z,101864.38
2022-08-01T15:28:24.409Z,101863.44
2022-08-01T15:30:50.970Z,101872.50
2022-08-01T15:33:18.269Z,101842.53
2022-08-01T15:35:44.908Z,101877.69
2022-08-01T15:38:11.954Z,101871.25
2022-08-01T15:40:38.651Z,101885.91
2022-08-01T15:43:07.499Z,101888.03
2022-08-01T15:45:49.435Z,101883.97
2022-08-01T15:48:18.363Z,101882.09
2022-08-01T15:50:48.696Z,101891.09
2022-08-01T15:53:17.363Z,101891.13
2022-08-01T15:55:48.875Z,101893.91
2022-08-01T15:58:19.475Z,101897.16
2022-08-01T16:00:48.615Z,101886.88
2022-08-01T16:03:15.148Z,101884.31
2022-08-01T16:05:44.343Z,101889.41
2022-08-01T16:08:14.263Z,101883.66
2022-08-01T16:10:41.583Z,101874.88
2022-08-01T16:13:08.649Z,101880.00
2022-08-01T16:15:39.344Z,101884.31
2022-08-01T16:18:08.048Z,101866.09
2022-08-01T16:20:35.744Z,101879.97
2022-08-01T16:23:02.541Z,101878.50
2022-08-01T16:25:29.248Z,101885.19
2022-08-01T16:27:55.898Z,101868.47
2022-08-01T16:30:22.844Z,101885.22
2022-08-01T16:32:53.413Z,101872.53
2022-08-01T16:35:36.754Z,101874.25
2022-08-01T16:38:08.083Z,101856.44
2022-08-01T16:40:46.333Z,101875.97
2022-08-01T16:43:17.404Z,101874.69
2022-08-01T16:45:47.287Z,101877.06
2022-08-01T16:48:20.997Z,101858.19
2022-08-01T16:50:49.620Z,101876.84
2022-08-01T16:53:20.305Z,101879.41
2022-08-01T16:55:50.320Z,101876.22
2022-08-01T16:58:27.582Z,101872.13
2022-08-01T17:00:56.771Z,101876.63
2022-08-01T17:03:46.560Z,101882.63
2022-08-01T17:06:16.829Z,101879.44
2022-08-01T17:08:46.909Z,101882.88
2022-08-01T17:11:15.243Z,101874.50
2022-08-01T17:13:42.638Z,101877.94
2022-08-01T17:16:09.539Z,101877.94
2022-08-01T17:18:36.112Z,101867.59
2022-08-01T17:21:02.816Z,101886.94
2022-08-01T17:23:31.641Z,101893.38
2022-08-01T17:25:58.842Z,101855.16
2022-08-01T17:28:28.376Z,101891.06
2022-08-01T17:30:55.098Z,101888.09
2022-08-01T17:33:21.751Z,101888.25
2022-08-01T17:35:49.733Z,101897.88
2022-08-01T17:38:17.067Z,101896.34
2022-08-01T17:40:43.794Z,101895.09
2022-08-01T17:43:10.381Z,101896.41
2022-08-01T17:45:50.192Z,101873.66
2022-08-01T17:48:18.609Z,101899.81
2022-08-01T17:50:48.850Z,101889.28
2022-08-01T17:53:21.086Z,101892.69
2022-08-01T17:55:54.466Z,101898.25
2022-08-01T17:58:33.064Z,101887.13
2022-08-01T18:01:11.168Z,101889.91
2022-08-01T18:03:41.492Z,101882.78
2022-08-01T18:06:13.798Z,101893.72
2022-08-01T18:08:41.981Z,101898.00
2022-08-01T18:11:09.441Z,101895.22
2022-08-01T18:13:36.328Z,101893.47
2022-08-01T18:16:07.265Z,101872.59
2022-08-01T18:18:36.825Z,101907.34
2022-08-01T18:21:03.919Z,101903.00
2022-08-01T18:23:33.679Z,101903.19
2022-08-01T18:26:02.461Z,101903.38
2022-08-01T18:28:35.087Z,101909.09
2022-08-01T18:31:06.425Z,101907.53
2022-08-01T18:33:34.513Z,101910.31
2022-08-01T18:36:04.097Z,101913.69
2022-08-01T18:38:32.462Z,101910.91
2022-08-01T18:41:03.434Z,101915.81
2022-08-01T18:43:30.032Z,101912.97
2022-08-01T18:45:57.549Z,101920.19
2022-08-01T18:48:24.534Z,101913.31
2022-08-01T18:50:51.509Z,101922.50
2022-08-01T18:53:18.861Z,101913.69
2022-08-01T18:55:45.625Z,101907.19
2022-08-01T18:58:12.328Z,101925.03
2022-08-01T19:00:39.904Z,101907.78
2022-08-01T19:03:07.818Z,101914.16
2022-08-01T19:05:35.103Z,101917.91
2022-08-01T19:08:05.592Z,101909.03
2022-08-01T19:10:38.539Z,101919.44
2022-08-01T19:13:05.241Z,101925.75
2022-08-01T19:15:31.865Z,101922.91
2022-08-01T19:17:58.414Z,101918.56
2022-08-01T19:20:25.189Z,101930.81
2022-08-01T19:22:51.738Z,101921.56
2022-08-01T19:25:18.445Z,101917.53
2022-08-01T19:27:48.526Z,101925.19
2022-08-01T19:30:17.834Z,101930.84
2022-08-01T19:32:46.277Z,101933.22
2022-08-01T19:35:17.935Z,101946.63
2022-08-01T19:37:47.173Z,101945.81
2022-08-01T19:40:26.733Z,101950.38
2022-08-01T19:42:57.033Z,101952.22
2022-08-01T19:45:28.120Z,101954.72
2022-08-01T19:47:57.194Z,101957.50
2022-08-01T19:50:26.497Z,101958.66
2022-08-01T19:52:57.801Z,101965.41
2022-08-01T19:55:24.898Z,101952.31
2022-08-01T19:58:17.186Z,101965.00
2022-08-01T20:00:40.158Z,101951.78
2022-08-01T20:03:07.982Z,101966.66
2022-08-01T20:05:39.017Z,101969.78
2022-08-01T20:08:09.258Z,101968.81
2022-08-01T20:10:38.286Z,101956.94
2022-08-01T20:13:05.417Z,101965.59
2022-08-01T20:15:32.055Z,101956.84
2022-08-01T20:18:00.885Z,101969.16
2022-08-01T20:20:27.955Z,101960.53
2022-08-01T20:22:56.800Z,101961.25
2022-08-01T20:25:39.174Z,101955.97
2022-08-01T20:28:11.432Z,101956.53
2022-08-01T20:30:42.745Z,101965.50
2022-08-01T20:33:11.273Z,101966.22
2022-08-01T20:35:52.161Z,101961.94
2022-08-01T20:38:28.989Z,101964.38
2022-08-01T20:40:58.762Z,101962.81
2022-08-01T20:43:27.513Z,101959.75
2022-08-01T20:45:57.420Z,101953.19
2022-08-01T20:48:28.232Z,101954.78
2022-08-01T20:51:13.941Z,101953.56
2022-08-01T20:53:46.518Z,101963.91
2022-08-01T20:56:17.272Z,101958.91
2022-08-01T20:58:48.273Z,101949.13
2022-08-01T21:01:17.710Z,101958.97
2022-08-01T21:04:26.894Z,101957.78
2022-08-01T21:07:06.732Z,101945.56
2022-08-01T21:09:39.500Z,101955.75
2022-08-01T21:12:09.703Z,101964.22
2022-08-01T21:15:08.346Z,101939.00
2022-08-01T21:17:49.459Z,101957.81
2022-08-01T21:20:22.063Z,101963.84
2022-08-01T21:23:28.461Z,101965.75
2022-08-01T21:25:58.047Z,101968.69
2022-08-01T21:28:28.327Z,101950.78
2022-08-01T21:30:59.418Z,101969.03
2022-08-01T21:33:30.583Z,101975.63
2022-08-01T21:36:02.736Z,101946.25
2022-08-01T21:38:33.909Z,101961.59
2022-08-01T21:41:05.722Z,101958.50
2022-08-01T21:43:36.145Z,101971.28
2022-08-01T21:46:03.206Z,101961.59
2022-08-01T21:48:32.577Z,101956.56
2022-08-01T21:51:03.971Z,101965.72
2022-08-01T21:53:54.134Z,101965.00
2022-08-01T21:56:24.831Z,101964.16
2022-08-01T21:59:00.432Z,101959.84
2022-08-01T22:01:52.105Z,101970.84
2022-08-01T22:04:26.775Z,101938.06
2022-08-01T22:06:54.448Z,101967.75
2022-08-01T22:09:22.111Z,101958.09
2022-08-01T22:12:00.952Z,101960.84
2022-08-01T22:14:29.991Z,101969.13
2022-08-01T22:17:00.007Z,101963.94
2022-08-01T22:19:32.730Z,101961.69
2022-08-01T22:22:32.305Z,101961.16
2022-08-01T22:25:00.338Z,101968.91
2022-08-01T22:28:08.078Z,101961.16
2022-08-01T22:30:16.270Z,101956.78
2022-08-01T22:32:44.032Z,101954.38
2022-08-01T22:35:14.083Z,101959.72
2022-08-01T22:37:56.382Z,101954.38
2022-08-01T22:40:24.317Z,101956.09
2022-08-01T22:42:59.649Z,101954.53
2022-08-01T22:45:40.506Z,101948.66
2022-08-01T22:48:34.890Z,101946.22
2022-08-01T22:51:34.780Z,101945.88
2022-08-01T22:54:12.261Z,101931.53
2022-08-01T22:56:44.095Z,101949.97
2022-08-01T22:59:20.771Z,101939.97
2022-08-01T23:01:51.739Z,101953.06
2022-08-01T23:04:33.218Z,101950.31
2022-08-01T23:07:04.976Z,101941.00
2022-08-01T23:09:53.209Z,101946.34
2022-08-01T23:12:23.695Z,101940.28
2022-08-01T23:14:53.544Z,101957.84
2022-08-01T23:17:27.332Z,101938.16
2022-08-01T23:20:06.218Z,101942.09
2022-08-01T23:22:35.677Z,101946.75
2022-08-01T23:25:06.493Z,101930.56
2022-08-01T23:28:04.100Z,101929.38
2022-08-01T23:30:28.486Z,101931.41
2022-08-01T23:32:55.808Z,101919.53
2022-08-01T23:35:25.006Z,101925.38
2022-08-01T23:37:52.066Z,101916.41
2022-08-01T23:40:19.370Z,101918.84
2022-08-01T23:42:46.093Z,101929.22
2022-08-01T23:45:14.971Z,101923.53
2022-08-01T23:47:43.719Z,101918.03
2022-08-01T23:50:11.455Z,101916.97
2022-08-01T23:52:42.603Z,101922.34
2022-08-01T23:55:15.755Z,101877.13
2022-08-01T23:57:42.778Z,101908.19
